createdAt,value
2022-08-10T00:01:54.837Z,44.92
2022-08-10T00:04:23.596Z,45.23
2022-08-10T00:06:55.276Z,45.24
2022-08-10T00:09:23.673Z,45.26
2022-08-10T00:11:50.380Z,45.40
2022-08-10T00:14:17.235Z,45.64
2022-08-10T00:16:43.859Z,45.78
2022-08-10T00:19:10.572Z,45.99
2022-08-10T00:21:37.563Z,45.87
2022-08-10T00:24:04.460Z,45.83
2022-08-10T00:27:52.727Z,46.11
2022-08-10T00:29:17.712Z,46.50
2022-08-10T00:31:58.098Z,46.44
2022-08-10T00:34:31.289Z,46.68
2022-08-10T00:36:58.265Z,46.82
2022-08-10T00:39:26.037Z,46.94
2022-08-10T00:42:01.862Z,46.78
2022-08-10T00:44:43.345Z,47.09
2022-08-10T00:47:15.366Z,47.17
2022-08-10T00:49:58.034Z,47.29
2022-08-10T00:52:27.479Z,47.49
2022-08-10T00:54:55.059Z,47.39
2022-08-10T00:57:21.843Z,47.46
2022-08-10T00:59:58.034Z,47.41
2022-08-10T01:02:32.150Z,47.50
2022-08-10T01:05:03.018Z,47.64
2022-08-10T01:07:41.612Z,47.64
2022-08-10T01:10:21.905Z,47.79
2022-08-10T01:13:13.370Z,47.78
2022-08-10T01:15:42.861Z,47.85
2022-08-10T01:18:17.680Z,47.92
2022-08-10T01:21:22.000Z,48.11
2022-08-10T01:24:25.039Z,48.46
2022-08-10T01:27:14.718Z,48.27
2022-08-10T01:30:01.914Z,48.24
2022-08-10T01:32:37.455Z,48.32
2022-08-10T01:35:30.147Z,48.36
2022-08-10T01:38:24.609Z,48.50
2022-08-10T01:41:01.692Z,48.57
2022-08-10T01:43:31.718Z,48.51
2022-08-10T01:46:01.749Z,48.77
2022-08-10T01:48:32.947Z,48.87
2022-08-10T01:51:02.478Z,49.02
2022-08-10T01:53:41.268Z,48.83
2022-08-10T01:56:12.219Z,48.90
2022-08-10T01:58:40.219Z,49.12
2022-08-10T02:01:09.835Z,49.16
2022-08-10T02:04:03.067Z,49.30
2022-08-10T02:06:29.593Z,49.39
2022-08-10T02:09:06.024Z,49.34
2022-08-10T02:12:06.546Z,49.24
2022-08-10T02:14:51.630Z,49.38
2022-08-10T02:18:00.499Z,49.40
2022-08-10T02:20:18.256Z,49.22
2022-08-10T02:22:48.983Z,49.19
2022-08-10T02:25:41.001Z,49.15
2022-08-10T02:28:07.583Z,49.54
2022-08-10T02:30:35.184Z,49.49
2022-08-10T02:33:03.144Z,49.65
2022-08-10T02:35:39.922Z,49.66
2022-08-10T02:38:59.626Z,49.77
2022-08-10T02:45:14.973Z,49.95
2022-08-10T02:45:24.326Z,49.88
2022-08-10T02:47:21.985Z,49.89
2022-08-10T02:49:54.969Z,49.97
2022-08-10T02:52:28.110Z,50.18
2022-08-10T02:55:06.189Z,50.38
2022-08-10T02:58:17.367Z,50.38
2022-08-10T03:00:44.487Z,50.27
2022-08-10T03:03:17.778Z,50.25
2022-08-10T03:05:47.646Z,50.27
2022-08-10T03:08:18.836Z,50.37
2022-08-10T03:10:46.383Z,50.52
2022-08-10T03:13:14.974Z,50.53
2022-08-10T03:15:42.623Z,50.55
2022-08-10T03:18:10.219Z,50.99
2022-08-10T03:20:40.751Z,51.04
2022-08-10T03:23:27.989Z,51.43
2022-08-10T03:25:57.496Z,51.29
2022-08-10T03:28:26.946Z,51.53
2022-08-10T03:30:54.708Z,51.59
2022-08-10T03:33:22.748Z,51.40
2022-08-10T03:36:42.357Z,51.37
2022-08-10T03:38:37.551Z,51.37
2022-08-10T03:41:08.480Z,51.25
2022-08-10T03:43:35.770Z,51.26
2022-08-10T03:46:06.254Z,51.41
2022-08-10T03:48:49.375Z,51.38
2022-08-10T03:51:18.857Z,51.05
2022-08-10T03:54:05.038Z,51.45
2022-08-10T03:56:35.407Z,51.30
2022-08-10T03:59:02.613Z,51.36
2022-08-10T04:02:45.178Z,51.19
2022-08-10T04:04:23.631Z,51.21
2022-08-10T04:06:54.855Z,51.07
2022-08-10T04:09:54.731Z,51.21
2022-08-10T04:12:17.372Z,50.98
2022-08-10T04:14:51.098Z,51.30
2022-08-10T04:18:05.115Z,51.38
2022-08-10T04:20:21.930Z,51.49
2022-08-10T04:22:52.117Z,51.44
2022-08-10T04:25:21.044Z,51.69
2022-08-10T04:27:48.642Z,51.56
2022-08-10T04:30:15.612Z,51.78
2022-08-10T04:32:43.720Z,51.67
2022-08-10T04:35:13.722Z,51.82
2022-08-10T04:37:47.318Z,51.73
2022-08-10T04:40:28.588Z,51.58
2022-08-10T04:43:07.353Z,51.61
2022-08-10T04:45:50.566Z,51.52
2022-08-10T04:48:43.016Z,51.53
2022-08-10T04:51:18.932Z,51.30
2022-08-10T04:54:02.845Z,51.45
2022-08-10T04:56:33.539Z,51.36
2022-08-10T04:59:00.754Z,51.56
2022-08-10T05:02:09.873Z,51.43
2022-08-10T05:04:33.958Z,51.20
2022-08-10T05:07:01.480Z,51.08
2022-08-10T05:09:28.071Z,51.10
2022-08-10T05:11:54.747Z,51.05
2022-08-10T05:14:21.326Z,51.06
2022-08-10T05:16:47.941Z,50.78
2022-08-10T05:19:14.558Z,50.66
2022-08-10T05:22:03.956Z,50.30
2022-08-10T05:24:27.793Z,50.33
2022-08-10T05:27:00.632Z,50.31
2022-08-10T05:29:36.406Z,50.14
2022-08-10T05:32:03.341Z,49.91
2022-08-10T05:34:30.296Z,49.76
2022-08-10T05:36:57.995Z,49.71
2022-08-10T05:39:30.238Z,49.41
2022-08-10T05:42:01.282Z,49.09
2022-08-10T05:44:29.162Z,48.70
2022-08-10T05:46:56.127Z,48.38
2022-08-10T05:49:22.735Z,48.01
2022-08-10T05:51:49.411Z,47.37
2022-08-10T05:54:16.132Z,46.92
2022-08-10T05:56:54.061Z,46.54
2022-08-10T06:00:33.384Z,46.16
2022-08-10T06:02:34.963Z,45.68
2022-08-10T06:05:14.696Z,45.54
2022-08-10T06:08:03.891Z,44.87
2022-08-10T06:10:32.972Z,44.33
2022-08-10T06:13:30.737Z,44.05
2022-08-10T06:16:06.004Z,43.58
2022-08-10T06:18:32.941Z,43.31
2022-08-10T06:21:00.942Z,42.97
2022-08-10T06:23:32.623Z,42.64
2022-08-10T06:26:10.956Z,42.39
2022-08-10T06:28:56.058Z,42.35
2022-08-10T06:31:46.994Z,41.84
2022-08-10T06:34:36.746Z,41.79
2022-08-10T06:37:05.143Z,41.21
2022-08-10T06:39:34.493Z,41.22
2022-08-10T06:42:16.800Z,40.76
2022-08-10T06:44:52.673Z,40.58
2022-08-10T06:47:22.800Z,40.38
2022-08-10T06:49:54.234Z,39.92
2022-08-10T06:52:30.614Z,39.70
2022-08-10T06:55:00.678Z,39.11
2022-08-10T06:57:31.067Z,39.40
2022-08-10T06:59:59.247Z,39.34
2022-08-10T07:02:34.320Z,39.51
2022-08-10T07:05:04.078Z,39.74
2022-08-10T07:07:35.034Z,39.33
2022-08-10T07:10:01.743Z,39.82
2022-08-10T07:12:35.273Z,39.01
2022-08-10T07:15:03.087Z,38.94
2022-08-10T07:17:35.908Z,38.97
2022-08-10T07:20:09.416Z,38.98
2022-08-10T07:23:01.785Z,38.69
2022-08-10T07:25:25.997Z,38.44
2022-08-10T07:28:00.587Z,38.03
2022-08-10T07:30:31.558Z,38.21
2022-08-10T07:33:00.429Z,37.77
2022-08-10T07:35:33.216Z,37.61
2022-08-10T07:38:06.525Z,37.69
2022-08-10T07:40:33.900Z,37.43
2022-08-10T07:43:02.217Z,37.73
2022-08-10T07:45:33.456Z,37.24
2022-08-10T07:48:07.441Z,37.14
2022-08-10T07:50:38.003Z,37.27
2022-08-10T07:53:10.133Z,36.82
2022-08-10T07:56:03.407Z,36.73
2022-08-10T07:58:36.839Z,36.46
2022-08-10T08:01:03.609Z,36.87
2022-08-10T08:03:32.625Z,36.55
2022-08-10T08:06:05.078Z,36.61
2022-08-10T08:08:40.536Z,35.99
2022-08-10T08:11:08.751Z,36.08
2022-08-10T08:13:37.891Z,35.65
2022-08-10T08:16:19.154Z,34.98
2022-08-10T08:18:58.105Z,35.01
2022-08-10T08:24:06.969Z,34.90
2022-08-10T08:24:31.387Z,34.69
2022-08-10T08:27:02.283Z,35.01
2022-08-10T08:29:31.489Z,34.47
2022-08-10T08:32:01.820Z,34.42
2022-08-10T08:34:32.501Z,33.67
2022-08-10T08:37:01.131Z,34.23
2022-08-10T08:39:28.780Z,33.65
2022-08-10T08:42:14.656Z,33.54
2022-08-10T08:45:05.838Z,33.30
2022-08-10T08:48:04.397Z,32.93
2022-08-10T08:50:30.162Z,32.88
2022-08-10T08:53:22.558Z,32.95
2022-08-10T08:56:05.962Z,32.40
2022-08-10T08:59:05.719Z,32.38
2022-08-10T09:01:50.945Z,31.46
2022-08-10T09:04:47.279Z,32.27
2022-08-10T09:07:39.369Z,32.02
2022-08-10T09:10:51.598Z,31.16
2022-08-10T09:13:34.539Z,31.14
2022-08-10T09:16:34.995Z,30.50
2022-08-10T09:19:36.374Z,31.37
2022-08-10T09:22:38.013Z,30.04
2022-08-10T09:25:18.832Z,31.34
2022-08-10T09:27:49.600Z,30.92
2022-08-10T09:30:28.431Z,30.62
2022-08-10T09:36:24.604Z,30.57
2022-08-10T09:36:32.996Z,30.24
2022-08-10T09:40:56.379Z,29.15
2022-08-10T09:42:24.055Z,29.34
2022-08-10T09:45:03.221Z,29.15
2022-08-10T09:47:58.869Z,28.49
2022-08-10T09:51:05.364Z,28.22
2022-08-10T09:53:44.261Z,27.55
2022-08-10T09:56:30.564Z,28.60
2022-08-10T09:59:27.175Z,28.74
2022-08-10T10:02:18.111Z,28.63
2022-08-10T10:05:02.052Z,28.66
2022-08-10T10:07:29.881Z,27.01
2022-08-10T10:10:04.917Z,26.94
2022-08-10T10:12:50.466Z,26.53
2022-08-10T10:15:50.964Z,26.78
2022-08-10T10:18:28.576Z,26.75
2022-08-10T10:21:11.499Z,27.05
2022-08-10T10:24:40.787Z,27.82
2022-08-10T10:27:24.450Z,26.67
2022-08-10T10:30:11.488Z,26.86
2022-08-10T10:32:59.482Z,26.43
2022-08-10T10:35:36.670Z,26.97
2022-08-10T10:38:06.578Z,26.46
2022-08-10T10:40:47.067Z,26.24
2022-08-10T10:43:31.787Z,25.61
2022-08-10T10:46:23.586Z,26.00
2022-08-10T10:49:19.335Z,25.63
2022-08-10T10:52:02.916Z,26.26
2022-08-10T10:54:59.842Z,26.32
2022-08-10T10:57:59.318Z,26.52
2022-08-10T11:00:27.815Z,26.66
2022-08-10T11:03:01.556Z,26.20
2022-08-10T11:05:40.567Z,26.83
2022-08-10T11:08:29.142Z,27.24
2022-08-10T11:11:02.798Z,27.32
2022-08-10T11:14:27.428Z,27.29
2022-08-10T11:16:57.241Z,26.89
2022-08-10T11:20:02.782Z,27.42
2022-08-10T11:22:46.238Z,26.79
2022-08-10T11:25:18.727Z,27.04
2022-08-10T11:27:56.694Z,27.02
2022-08-10T11:30:33.932Z,27.15
2022-08-10T11:33:30.837Z,26.84
2022-08-10T11:36:08.875Z,27.54
2022-08-10T11:39:13.965Z,26.95
2022-08-10T11:42:08.022Z,26.89
2022-08-10T11:45:03.016Z,27.76
2022-08-10T11:47:32.685Z,27.40
2022-08-10T11:50:11.277Z,27.68
2022-08-10T11:52:50.305Z,27.34
2022-08-10T11:55:23.316Z,26.99
2022-08-10T11:57:55.762Z,26.91
2022-08-10T12:00:24.918Z,27.74
2022-08-10T12:02:59.584Z,27.34
2022-08-10T12:05:51.638Z,26.49
2022-08-10T12:10:05.551Z,26.65
2022-08-10T12:11:09.023Z,26.85
2022-08-10T12:14:10.645Z,26.27
2022-08-10T12:16:40.603Z,26.69
2022-08-10T12:19:58.718Z,26.16
2022-08-10T12:22:33.104Z,26.26
2022-08-10T12:25:03.917Z,26.49
2022-08-10T12:27:52.067Z,27.17
2022-08-10T12:30:26.539Z,26.68
2022-08-10T12:33:07.865Z,26.27
2022-08-10T12:35:56.070Z,26.57
2022-08-10T12:38:39.387Z,26.78
2022-08-10T12:41:43.591Z,25.75
2022-08-10T12:44:42.355Z,25.28
2022-08-10T12:47:34.716Z,24.56
2022-08-10T12:50:33.521Z,24.21
2022-08-10T12:53:14.552Z,23.50
2022-08-10T12:55:42.345Z,23.85
2022-08-10T12:58:59.903Z,23.83
2022-08-10T13:01:21.361Z,23.89
2022-08-10T13:04:23.349Z,23.60
2022-08-10T13:06:43.514Z,23.66
2022-08-10T13:09:10.203Z,23.32
2022-08-10T13:12:35.494Z,23.35
2022-08-10T13:15:45.158Z,23.76
2022-08-10T13:18:02.606Z,23.42
2022-08-10T13:20:37.106Z,23.80
2022-08-10T13:23:13.151Z,23.61
2022-08-10T13:25:43.105Z,23.44
2022-08-10T13:28:35.380Z,23.54
2022-08-10T13:31:05.468Z,23.22
2022-08-10T13:34:40.943Z,23.39
2022-08-10T13:36:28.882Z,23.74
2022-08-10T13:38:57.159Z,23.33
2022-08-10T13:41:34.025Z,23.68
2022-08-10T13:44:01.757Z,22.63
2022-08-10T13:46:28.546Z,22.67
2022-08-10T13:48:58.032Z,23.17
2022-08-10T13:51:53.702Z,22.91
2022-08-10T13:54:18.720Z,23.89
2022-08-10T13:56:47.556Z,23.68
2022-08-10T13:59:16.341Z,24.28
2022-08-10T14:01:50.235Z,23.63
2022-08-10T14:04:19.581Z,23.20
2022-08-10T14:06:54.443Z,24.16
2022-08-10T14:09:28.360Z,24.62
2022-08-10T14:11:56.529Z,24.05
2022-08-10T14:14:25.644Z,24.18
2022-08-10T14:16:53.914Z,24.00
2022-08-10T14:19:27.705Z,24.10
2022-08-10T14:21:54.598Z,25.05
2022-08-10T14:24:27.718Z,24.33
2022-08-10T14:27:10.074Z,24.34
2022-08-10T14:29:56.274Z,24.74
2022-08-10T14:32:27.360Z,25.36
2022-08-10T14:36:22.200Z,25.16
2022-08-10T14:37:56.027Z,24.79
2022-08-10T14:40:26.805Z,25.24
2022-08-10T14:43:01.499Z,25.21
2022-08-10T14:45:31.747Z,24.29
2022-08-10T14:48:11.808Z,24.32
2022-08-10T14:50:49.472Z,24.29
2022-08-10T14:53:26.901Z,24.04
2022-08-10T14:56:00.891Z,24.05
2022-08-10T14:58:38.540Z,23.99
2022-08-10T15:01:07.878Z,23.62
2022-08-10T15:04:01.069Z,24.17
2022-08-10T15:06:53.975Z,24.41
2022-08-10T15:09:23.357Z,24.06
2022-08-10T15:12:15.857Z,24.15
2022-08-10T15:14:58.462Z,24.52
2022-08-10T15:17:34.823Z,24.44
2022-08-10T15:20:14.876Z,24.32
2022-08-10T15:22:49.965Z,24.59
2022-08-10T15:25:24.437Z,23.86
2022-08-10T15:28:05.071Z,24.24
2022-08-10T15:31:03.810Z,24.12
2022-08-10T15:34:04.370Z,24.28
2022-08-10T15:37:02.496Z,23.87
2022-08-10T15:40:22.508Z,23.41
2022-08-10T15:43:00.174Z,23.15
2022-08-10T15:45:27.479Z,23.17
2022-08-10T15:48:03.385Z,23.06
2022-08-10T15:50:50.849Z,22.74
2022-08-10T15:53:50.759Z,22.88
2022-08-10T15:56:43.571Z,23.15
2022-08-10T15:59:29.788Z,23.09
2022-08-10T16:02:15.006Z,23.36
2022-08-10T16:04:57.202Z,22.92
2022-08-10T16:07:50.118Z,22.27
2022-08-10T16:10:25.534Z,21.96
2022-08-10T16:13:50.974Z,22.38
2022-08-10T16:16:05.408Z,22.47
2022-08-10T16:18:37.450Z,22.20
2022-08-10T16:21:17.322Z,21.95
2022-08-10T16:24:14.300Z,21.98
2022-08-10T16:26:46.700Z,22.02
2022-08-10T16:29:18.287Z,21.91
2022-08-10T16:31:54.951Z,22.76
2022-08-10T16:34:23.746Z,22.07
2022-08-10T16:36:59.605Z,22.52
2022-08-10T16:39:57.761Z,22.69
2022-08-10T16:42:24.723Z,22.71
2022-08-10T16:45:11.762Z,22.66
2022-08-10T16:47:46.899Z,22.53
2022-08-10T16:50:17.109Z,22.58
2022-08-10T16:52:44.873Z,22.97
2022-08-10T16:55:49.478Z,23.02
2022-08-10T16:58:14.034Z,23.24
2022-08-10T17:00:42.883Z,23.33
2022-08-10T17:03:22.514Z,23.28
2022-08-10T17:06:11.863Z,23.36
2022-08-10T17:08:48.536Z,23.18
2022-08-10T17:11:18.438Z,23.56
2022-08-10T17:13:45.505Z,23.65
2022-08-10T17:16:14.558Z,23.71
2022-08-10T17:18:45.127Z,23.68
2022-08-10T17:21:28.306Z,23.31
2022-08-10T17:23:57.992Z,23.75
2022-08-10T17:26:36.094Z,24.15
2022-08-10T17:29:53.279Z,24.04
2022-08-10T17:32:05.459Z,24.10
2022-08-10T17:34:40.096Z,24.11
2022-08-10T17:37:16.112Z,24.44
2022-08-10T17:39:47.909Z,24.24
2022-08-10T17:42:21.852Z,24.54
2022-08-10T17:44:52.089Z,24.27
2022-08-10T17:47:20.892Z,24.27
2022-08-10T17:49:49.667Z,24.24
2022-08-10T17:52:21.698Z,24.21
2022-08-10T17:54:55.070Z,24.78
2022-08-10T17:57:23.938Z,24.69
2022-08-10T17:59:52.779Z,24.74
2022-08-10T18:02:27.245Z,25.07
2022-08-10T18:04:57.255Z,24.87
2022-08-10T18:07:33.565Z,25.46
2022-08-10T18:10:01.656Z,25.54
2022-08-10T18:12:38.759Z,25.46
2022-08-10T18:15:12.253Z,25.34
2022-08-10T18:17:59.413Z,25.80
2022-08-10T18:20:34.397Z,25.87
2022-08-10T18:23:02.024Z,26.22
2022-08-10T18:25:35.535Z,26.73
2022-08-10T18:28:05.944Z,26.70
2022-08-10T18:30:45.151Z,26.78
2022-08-10T18:33:14.162Z,27.05
2022-08-10T18:35:43.756Z,27.19
2022-08-10T18:38:11.633Z,27.53
2022-08-10T18:40:44.357Z,28.02
2022-08-10T18:44:06.977Z,28.25
2022-08-10T18:46:06.419Z,28.33
2022-08-10T18:48:49.183Z,28.56
2022-08-10T18:51:24.034Z,28.42
2022-08-10T18:53:56.891Z,28.75
2022-08-10T18:56:29.314Z,28.88
2022-08-10T18:59:17.608Z,29.40
2022-08-10T19:01:53.008Z,30.23
2022-08-10T19:04:43.525Z,30.81
2022-08-10T19:07:22.071Z,31.93
2022-08-10T19:10:03.605Z,31.42
2022-08-10T19:12:51.678Z,30.56
2022-08-10T19:15:44.819Z,30.34
2022-08-10T19:18:12.315Z,29.98
2022-08-10T19:20:55.519Z,29.88
2022-08-10T19:23:36.158Z,30.50
2022-08-10T19:26:44.245Z,29.79
2022-08-10T19:30:09.161Z,29.66
2022-08-10T19:32:51.755Z,29.47
2022-08-10T19:36:03.803Z,29.52
2022-08-10T19:38:53.516Z,29.68
2022-08-10T19:41:40.372Z,29.77
2022-08-10T19:44:48.395Z,29.78
2022-08-10T19:47:45.081Z,29.97
2022-08-10T19:50:19.302Z,29.80
2022-08-10T19:53:03.971Z,29.73
2022-08-10T19:55:36.679Z,29.71
2022-08-10T19:58:15.295Z,30.01
2022-08-10T20:00:56.192Z,29.62
2022-08-10T20:03:29.062Z,29.67
2022-08-10T20:06:18.371Z,29.49
2022-08-10T20:09:13.754Z,29.79
2022-08-10T20:12:07.756Z,29.90
2022-08-10T20:14:58.882Z,29.46
2022-08-10T20:17:51.354Z,29.49
2022-08-10T20:20:31.583Z,29.70
2022-08-10T20:23:19.048Z,29.62
2022-08-10T20:25:55.858Z,29.93
2022-08-10T20:29:16.213Z,30.57
2022-08-10T20:31:54.018Z,30.77
2022-08-10T20:34:23.066Z,30.56
2022-08-10T20:37:06.719Z,31.34
2022-08-10T20:40:12.176Z,31.10
2022-08-10T20:43:10.571Z,31.09
2022-08-10T20:46:06.857Z,31.61
2022-08-10T20:48:36.741Z,31.57
2022-08-10T20:51:08.154Z,31.53
2022-08-10T20:53:45.172Z,31.73
2022-08-10T20:56:21.493Z,31.65
2022-08-10T20:59:00.115Z,31.84
2022-08-10T21:02:06.599Z,31.79
2022-08-10T21:04:53.731Z,31.84
2022-08-10T21:08:01.540Z,32.13
2022-08-10T21:10:48.482Z,31.86
2022-08-10T21:13:45.187Z,31.73
2022-08-10T21:16:36.547Z,32.41
2022-08-10T21:19:19.839Z,32.10
2022-08-10T21:21:56.987Z,32.53
2022-08-10T21:24:34.916Z,32.69
2022-08-10T21:27:35.728Z,32.45
2022-08-10T21:30:25.113Z,32.54
2022-08-10T21:33:00.185Z,32.97
2022-08-10T21:35:49.633Z,33.11
2022-08-10T21:38:37.862Z,33.29
2022-08-10T21:41:57.794Z,33.33
2022-08-10T21:45:14.009Z,33.51
2022-08-10T21:48:16.873Z,33.67
2022-08-10T21:51:24.657Z,33.62
2022-08-10T21:54:47.362Z,33.76
2022-08-10T21:57:58.493Z,33.63
2022-08-10T22:00:43.859Z,33.86
2022-08-10T22:03:39.641Z,34.07
2022-08-10T22:06:28.128Z,33.91
2022-08-10T22:09:27.136Z,34.20
2022-08-10T22:12:25.114Z,34.10
2022-08-10T22:16:05.609Z,34.59
2022-08-10T22:18:35.903Z,35.02
2022-08-10T22:22:07.746Z,34.90
2022-08-10T22:25:24.151Z,34.93
2022-08-10T22:28:17.777Z,35.21
2022-08-10T22:31:33.437Z,34.89
2022-08-10T22:35:03.836Z,35.10
2022-08-10T22:38:11.199Z,35.06
2022-08-10T22:41:02.442Z,35.09
2022-08-10T22:43:51.594Z,35.04
2022-08-10T22:46:40.490Z,35.41
2022-08-10T22:49:07.658Z,35.54
2022-08-10T22:51:46.691Z,35.75
2022-08-10T22:54:57.135Z,35.51
2022-08-10T22:57:42.199Z,35.80
2022-08-10T23:00:17.624Z,35.72
2022-08-10T23:02:51.981Z,35.94
2022-08-10T23:05:30.308Z,36.38
2022-08-10T23:08:08.017Z,36.57
2022-08-10T23:10:41.621Z,36.80
2022-08-10T23:13:35.615Z,36.81
2022-08-10T23:16:45.875Z,36.92
2022-08-10T23:19:29.845Z,37.39
2022-08-10T23:22:07.611Z,38.01
2022-08-10T23:24:39.672Z,38.57
2022-08-10T23:27:13.132Z,38.25
2022-08-10T23:30:10.632Z,38.75
2022-08-10T23:32:42.357Z,38.95
2022-08-10T23:36:30.367Z,39.44
2022-08-10T23:38:10.258Z,39.53
2022-08-10T23:40:38.102Z,39.61
2022-08-10T23:43:06.815Z,39.65
2022-08-10T23:45:53.345Z,39.86
2022-08-10T23:48:25.959Z,40.10
2022-08-10T23:50:58.274Z,40.12
2022-08-10T23:53:35.342Z,40.31
2022-08-10T23:56:08.112Z,40.54
2022-08-10T23:58:39.692Z,40.58
